sensor_id;sensor_type;location;lat;lon;timestamp;temperature;humidity
21275;DHT22;36472;52.170;20.884;2024-01-30T00:01:00;25.40;33.10
21275;DHT22;36472;52.170;20.884;2024-01-30T00:03:46;25.40;33.20
21275;DHT22;36472;52.170;20.884;2024-01-30T00:06:18;25.40;33.10
21275;DHT22;36472;52.170;20.884;2024-01-30T00:08:49;25.40;33.10
21275;DHT22;36472;52.170;20.884;2024-01-30T00:11:17;25.40;33.20
21275;DHT22;36472;52.170;20.884;2024-01-30T00:13:48;25.30;33.10
21275;DHT22;36472;52.170;20.884;2024-01-30T00:16:20;25.30;33.10
21275;DHT22;36472;52.170;20.884;2024-01-30T00:18:51;25.30;33.00
21275;DHT22;36472;52.170;20.884;2024-01-30T00:21:21;25.30;33.00
21275;DHT22;36472;52.170;20.884;2024-01-30T00:23:50;25.30;33.00
21275;DHT22;36472;52.170;20.884;2024-01-30T00:26:19;25.30;32.90
21275;DHT22;36472;52.170;20.884;2024-01-30T00:28:50;25.30;33.00
21275;DHT22;36472;52.170;20.884;2024-01-30T00:31:19;25.30;33.00
21275;DHT22;36472;52.170;20.884;2024-01-30T00:33:48;25.30;33.60
21275;DHT22;36472;52.170;20.884;2024-01-30T00:36:17;25.30;32.90
21275;DHT22;36472;52.170;20.884;2024-01-30T00:38:46;25.30;32.90
21275;DHT22;36472;52.170;20.884;2024-01-30T00:41:17;25.30;32.90
21275;DHT22;36472;52.170;20.884;2024-01-30T00:43:47;25.30;32.90
21275;DHT22;36472;52.170;20.884;2024-01-30T00:46:17;25.30;32.90
21275;DHT22;36472;52.170;20.884;2024-01-30T00:48:46;25.30;32.80
21275;DHT22;36472;52.170;20.884;2024-01-30T00:51:15;25.30;32.80
21275;DHT22;36472;52.170;20.884;2024-01-30T00:53:45;25.30;32.80
21275;DHT22;36472;52.170;20.884;2024-01-30T00:56:14;25.30;32.80
21275;DHT22;36472;52.170;20.884;2024-01-30T00:58:46;25.30;32.70
21275;DHT22;36472;52.170;20.884;2024-01-30T01:01:16;25.30;32.80
21275;DHT22;36472;52.170;20.884;2024-01-30T01:03:45;25.30;32.70
21275;DHT22;36472;52.170;20.884;2024-01-30T01:06:16;25.30;32.80
21275;DHT22;36472;52.170;20.884;2024-01-30T01:08:45;25.30;32.80
21275;DHT22;36472;52.170;20.884;2024-01-30T01:11:14;25.30;32.70
21275;DHT22;36472;52.170;20.884;2024-01-30T01:13:43;25.30;32.50
21275;DHT22;36472;52.170;20.884;2024-01-30T01:16:11;25.30;32.40
21275;DHT22;36472;52.170;20.884;2024-01-30T01:18:42;25.30;32.40
21275;DHT22;36472;52.170;20.884;2024-01-30T01:21:11;25.30;32.40
21275;DHT22;36472;52.170;20.884;2024-01-30T01:23:40;25.30;32.40
21275;DHT22;36472;52.170;20.884;2024-01-30T01:26:09;25.20;33.10
21275;DHT22;36472;52.170;20.884;2024-01-30T01:28:40;25.20;32.50
21275;DHT22;36472;52.170;20.884;2024-01-30T01:31:09;25.20;32.30
21275;DHT22;36472;52.170;20.884;2024-01-30T01:33:38;25.20;32.20
21275;DHT22;36472;52.170;20.884;2024-01-30T01:36:08;25.20;32.20
21275;DHT22;36472;52.170;20.884;2024-01-30T01:38:38;25.20;32.20
21275;DHT22;36472;52.170;20.884;2024-01-30T01:41:07;25.20;32.30
21275;DHT22;36472;52.170;20.884;2024-01-30T01:43:36;25.20;32.20
21275;DHT22;36472;52.170;20.884;2024-01-30T01:46:06;25.10;32.10
21275;DHT22;36472;52.170;20.884;2024-01-30T01:48:36;25.10;32.20
21275;DHT22;36472;52.170;20.884;2024-01-30T01:51:09;25.10;32.30
21275;DHT22;36472;52.170;20.884;2024-01-30T01:53:38;25.00;32.20
21275;DHT22;36472;52.170;20.884;2024-01-30T01:56:07;25.10;32.30
21275;DHT22;36472;52.170;20.884;2024-01-30T01:58:37;25.00;32.50
21275;DHT22;36472;52.170;20.884;2024-01-30T02:01:07;25.00;32.60
21275;DHT22;36472;52.170;20.884;2024-01-30T02:03:37;25.00;32.50
21275;DHT22;36472;52.170;20.884;2024-01-30T02:06:06;25.00;32.60
21275;DHT22;36472;52.170;20.884;2024-01-30T02:08:37;24.90;32.70
21275;DHT22;36472;52.170;20.884;2024-01-30T02:11:07;24.90;32.80
21275;DHT22;36472;52.170;20.884;2024-01-30T02:13:36;25.00;32.70
21275;DHT22;36472;52.170;20.884;2024-01-30T02:16:05;25.00;32.70
21275;DHT22;36472;52.170;20.884;2024-01-30T02:18:35;24.90;32.70
21275;DHT22;36472;52.170;20.884;2024-01-30T02:21:19;25.00;32.90
21275;DHT22;36472;52.170;20.884;2024-01-30T02:23:49;25.00;32.90
21275;DHT22;36472;52.170;20.884;2024-01-30T02:26:19;25.00;32.80
21275;DHT22;36472;52.170;20.884;2024-01-30T02:28:48;25.00;32.80
21275;DHT22;36472;52.170;20.884;2024-01-30T02:31:17;25.00;32.80
21275;DHT22;36472;52.170;20.884;2024-01-30T02:33:46;25.00;32.90
21275;DHT22;36472;52.170;20.884;2024-01-30T02:36:15;25.00;32.70
21275;DHT22;36472;52.170;20.884;2024-01-30T02:38:45;25.00;32.70
21275;DHT22;36472;52.170;20.884;2024-01-30T02:41:14;25.10;32.80
21275;DHT22;36472;52.170;20.884;2024-01-30T02:43:43;25.10;32.70
21275;DHT22;36472;52.170;20.884;2024-01-30T02:46:12;25.00;32.70
21275;DHT22;36472;52.170;20.884;2024-01-30T02:48:41;25.10;32.80
21275;DHT22;36472;52.170;20.884;2024-01-30T02:51:10;25.00;32.70
21275;DHT22;36472;52.170;20.884;2024-01-30T02:53:39;25.00;32.60
21275;DHT22;36472;52.170;20.884;2024-01-30T02:56:09;25.10;32.70
21275;DHT22;36472;52.170;20.884;2024-01-30T02:58:40;25.00;32.60
21275;DHT22;36472;52.170;20.884;2024-01-30T03:01:08;25.00;32.60
21275;DHT22;36472;52.170;20.884;2024-01-30T03:03:38;25.00;32.60
21275;DHT22;36472;52.170;20.884;2024-01-30T03:06:08;25.10;32.70
21275;DHT22;36472;52.170;20.884;2024-01-30T03:08:37;25.10;32.70
21275;DHT22;36472;52.170;20.884;2024-01-30T03:11:07;25.00;32.70
21275;DHT22;36472;52.170;20.884;2024-01-30T03:13:38;25.00;32.50
21275;DHT22;36472;52.170;20.884;2024-01-30T03:16:08;25.10;32.60
21275;DHT22;36472;52.170;20.884;2024-01-30T03:18:37;25.00;32.50
21275;DHT22;36472;52.170;20.884;2024-01-30T03:21:06;25.00;32.60
21275;DHT22;36472;52.170;20.884;2024-01-30T03:23:36;25.10;32.70
21275;DHT22;36472;52.170;20.884;2024-01-30T03:26:04;25.00;32.50
21275;DHT22;36472;52.170;20.884;2024-01-30T03:28:34;25.00;32.50
21275;DHT22;36472;52.170;20.884;2024-01-30T03:31:04;25.00;32.50
21275;DHT22;36472;52.170;20.884;2024-01-30T03:33:33;25.00;32.40
21275;DHT22;36472;52.170;20.884;2024-01-30T03:36:04;25.00;32.40
21275;DHT22;36472;52.170;20.884;2024-01-30T03:38:33;25.00;32.40
21275;DHT22;36472;52.170;20.884;2024-01-30T03:41:03;25.00;32.40
21275;DHT22;36472;52.170;20.884;2024-01-30T03:43:32;25.00;32.30
21275;DHT22;36472;52.170;20.884;2024-01-30T03:46:01;25.00;32.30
21275;DHT22;36472;52.170;20.884;2024-01-30T03:48:32;25.00;32.30
21275;DHT22;36472;52.170;20.884;2024-01-30T03:51:01;25.00;32.30
21275;DHT22;36472;52.170;20.884;2024-01-30T03:53:31;25.00;32.30
21275;DHT22;36472;52.170;20.884;2024-01-30T03:56:00;25.00;32.40
21275;DHT22;36472;52.170;20.884;2024-01-30T03:58:29;24.90;32.50
21275;DHT22;36472;52.170;20.884;2024-01-30T04:00:58;24.90;32.50
21275;DHT22;36472;52.170;20.884;2024-01-30T04:03:27;24.90;32.40
21275;DHT22;36472;52.170;20.884;2024-01-30T04:05:57;24.90;32.50
21275;DHT22;36472;52.170;20.884;2024-01-30T04:08:27;24.90;32.60
21275;DHT22;36472;52.170;20.884;2024-01-30T04:10:55;24.90;32.70
21275;DHT22;36472;52.170;20.884;2024-01-30T04:13:25;24.90;32.60
21275;DHT22;36472;52.170;20.884;2024-01-30T04:15:53;24.80;32.50
21275;DHT22;36472;52.170;20.884;2024-01-30T04:18:24;24.90;32.50
21275;DHT22;36472;52.170;20.884;2024-01-30T04:20:52;24.90;32.40
21275;DHT22;36472;52.170;20.884;2024-01-30T04:23:23;24.90;32.50
21275;DHT22;36472;52.170;20.884;2024-01-30T04:25:52;24.90;32.40
21275;DHT22;36472;52.170;20.884;2024-01-30T04:28:21;24.90;32.40
21275;DHT22;36472;52.170;20.884;2024-01-30T04:30:50;24.90;32.40
21275;DHT22;36472;52.170;20.884;2024-01-30T04:33:19;24.90;32.40
21275;DHT22;36472;52.170;20.884;2024-01-30T04:35:48;24.90;32.40
21275;DHT22;36472;52.170;20.884;2024-01-30T04:38:17;24.90;32.30
21275;DHT22;36472;52.170;20.884;2024-01-30T04:40:47;24.90;32.20
21275;DHT22;36472;52.170;20.884;2024-01-30T04:43:16;24.90;32.30
21275;DHT22;36472;52.170;20.884;2024-01-30T04:45:46;24.90;32.20
21275;DHT22;36472;52.170;20.884;2024-01-30T04:48:16;24.90;32.20
21275;DHT22;36472;52.170;20.884;2024-01-30T04:50:44;24.90;32.90
21275;DHT22;36472;52.170;20.884;2024-01-30T04:53:13;24.90;32.30
21275;DHT22;36472;52.170;20.884;2024-01-30T04:55:42;24.90;32.20
21275;DHT22;36472;52.170;20.884;2024-01-30T04:58:13;24.80;32.20
21275;DHT22;36472;52.170;20.884;2024-01-30T05:00:42;24.90;32.30
21275;DHT22;36472;52.170;20.884;2024-01-30T05:03:11;24.90;32.20
21275;DHT22;36472;52.170;20.884;2024-01-30T05:05:40;24.80;32.20
21275;DHT22;36472;52.170;20.884;2024-01-30T05:08:09;24.80;32.20
21275;DHT22;36472;52.170;20.884;2024-01-30T05:10:38;24.80;32.30
21275;DHT22;36472;52.170;20.884;2024-01-30T05:13:07;24.80;32.30
21275;DHT22;36472;52.170;20.884;2024-01-30T05:15:38;24.80;32.30
21275;DHT22;36472;52.170;20.884;2024-01-30T05:18:07;24.80;32.30
21275;DHT22;36472;52.170;20.884;2024-01-30T05:20:36;24.80;32.30
21275;DHT22;36472;52.170;20.884;2024-01-30T05:23:05;24.80;32.30
21275;DHT22;36472;52.170;20.884;2024-01-30T05:25:34;24.80;32.40
21275;DHT22;36472;52.170;20.884;2024-01-30T05:28:03;24.70;32.30
21275;DHT22;36472;52.170;20.884;2024-01-30T05:30:32;24.80;32.40
21275;DHT22;36472;52.170;20.884;2024-01-30T05:33:03;24.70;32.40
21275;DHT22;36472;52.170;20.884;2024-01-30T05:35:33;24.70;32.30
21275;DHT22;36472;52.170;20.884;2024-01-30T05:38:02;24.70;32.40
21275;DHT22;36472;52.170;20.884;2024-01-30T05:40:31;24.70;32.40
21275;DHT22;36472;52.170;20.884;2024-01-30T05:43:00;24.80;32.30
21275;DHT22;36472;52.170;20.884;2024-01-30T05:45:30;24.70;32.30
21275;DHT22;36472;52.170;20.884;2024-01-30T05:47:59;24.70;32.30
21275;DHT22;36472;52.170;20.884;2024-01-30T05:50:29;24.80;32.30
21275;DHT22;36472;52.170;20.884;2024-01-30T05:52:59;24.80;32.20
21275;DHT22;36472;52.170;20.884;2024-01-30T05:55:27;24.80;32.30
21275;DHT22;36472;52.170;20.884;2024-01-30T05:57:57;24.80;32.20
21275;DHT22;36472;52.170;20.884;2024-01-30T06:00:26;24.80;32.20
21275;DHT22;36472;52.170;20.884;2024-01-30T06:02:55;24.80;32.10
21275;DHT22;36472;52.170;20.884;2024-01-30T06:05:24;24.80;32.10
21275;DHT22;36472;52.170;20.884;2024-01-30T06:07:55;24.70;32.10
21275;DHT22;36472;52.170;20.884;2024-01-30T06:10:24;24.80;32.10
21275;DHT22;36472;52.170;20.884;2024-01-30T06:12:53;24.80;32.20
21275;DHT22;36472;52.170;20.884;2024-01-30T06:15:22;24.70;32.20
21275;DHT22;36472;52.170;20.884;2024-01-30T06:17:51;24.70;32.10
21275;DHT22;36472;52.170;20.884;2024-01-30T06:20:20;24.70;32.20
21275;DHT22;36472;52.170;20.884;2024-01-30T06:22:49;24.70;32.20
21275;DHT22;36472;52.170;20.884;2024-01-30T06:25:19;24.70;32.30
21275;DHT22;36472;52.170;20.884;2024-01-30T06:27:48;24.70;32.20
21275;DHT22;36472;52.170;20.884;2024-01-30T06:30:18;24.70;32.20
21275;DHT22;36472;52.170;20.884;2024-01-30T06:32:47;24.70;32.30
21275;DHT22;36472;52.170;20.884;2024-01-30T06:35:16;24.70;32.30
21275;DHT22;36472;52.170;20.884;2024-01-30T06:37:45;24.70;32.30
21275;DHT22;36472;52.170;20.884;2024-01-30T06:40:14;24.70;32.40
21275;DHT22;36472;52.170;20.884;2024-01-30T06:42:45;24.70;32.30
21275;DHT22;36472;52.170;20.884;2024-01-30T06:45:14;24.70;32.10
21275;DHT22;36472;52.170;20.884;2024-01-30T06:47:43;24.80;32.20
21275;DHT22;36472;52.170;20.884;2024-01-30T06:50:12;24.80;32.10
21275;DHT22;36472;52.170;20.884;2024-01-30T06:52:41;24.80;32.10
21275;DHT22;36472;52.170;20.884;2024-01-30T06:55:10;24.80;32.10
21275;DHT22;36472;52.170;20.884;2024-01-30T06:57:40;24.90;32.10
21275;DHT22;36472;52.170;20.884;2024-01-30T07:00:12;24.90;32.10
21275;DHT22;36472;52.170;20.884;2024-01-30T07:02:43;24.90;32.10
21275;DHT22;36472;52.170;20.884;2024-01-30T07:05:11;24.90;32.10
21275;DHT22;36472;52.170;20.884;2024-01-30T07:07:42;24.90;32.10
21275;DHT22;36472;52.170;20.884;2024-01-30T07:10:11;24.90;32.10
21275;DHT22;36472;52.170;20.884;2024-01-30T07:12:40;24.90;32.00
21275;DHT22;36472;52.170;20.884;2024-01-30T07:15:11;24.90;32.00
21275;DHT22;36472;52.170;20.884;2024-01-30T07:17:42;24.90;32.10
21275;DHT22;36472;52.170;20.884;2024-01-30T07:20:11;24.90;32.00
21275;DHT22;36472;52.170;20.884;2024-01-30T07:22:44;24.90;32.00
21275;DHT22;36472;52.170;20.884;2024-01-30T07:25:13;25.00;32.10
21275;DHT22;36472;52.170;20.884;2024-01-30T07:27:43;25.00;32.20
21275;DHT22;36472;52.170;20.884;2024-01-30T07:30:13;25.00;32.30
21275;DHT22;36472;52.170;20.884;2024-01-30T07:32:44;25.10;32.30
21275;DHT22;36472;52.170;20.884;2024-01-30T07:35:13;25.10;32.30
21275;DHT22;36472;52.170;20.884;2024-01-30T07:37:42;25.20;32.40
21275;DHT22;36472;52.170;20.884;2024-01-30T07:40:11;25.20;32.30
21275;DHT22;36472;52.170;20.884;2024-01-30T07:42:40;25.30;32.50
21275;DHT22;36472;52.170;20.884;2024-01-30T07:45:10;25.40;32.60
21275;DHT22;36472;52.170;20.884;2024-01-30T07:47:40;25.40;32.40
21275;DHT22;36472;52.170;20.884;2024-01-30T07:50:10;25.50;32.40
21275;DHT22;36472;52.170;20.884;2024-01-30T07:52:39;25.50;32.40
21275;DHT22;36472;52.170;20.884;2024-01-30T07:55:08;25.60;32.30
21275;DHT22;36472;52.170;20.884;2024-01-30T07:57:38;25.70;32.30
21275;DHT22;36472;52.170;20.884;2024-01-30T08:00:08;25.80;32.00
21275;DHT22;36472;52.170;20.884;2024-01-30T08:02:39;25.90;32.10
21275;DHT22;36472;52.170;20.884;2024-01-30T08:05:08;26.00;32.30
21275;DHT22;36472;52.170;20.884;2024-01-30T08:07:39;26.10;31.90
21275;DHT22;36472;52.170;20.884;2024-01-30T08:10:08;26.10;31.80
21275;DHT22;36472;52.170;20.884;2024-01-30T08:12:38;26.10;31.80
21275;DHT22;36472;52.170;20.884;2024-01-30T08:15:08;26.20;31.80
21275;DHT22;36472;52.170;20.884;2024-01-30T08:17:39;26.30;31.90
21275;DHT22;36472;52.170;20.884;2024-01-30T08:20:08;26.40;32.10
21275;DHT22;36472;52.170;20.884;2024-01-30T08:22:40;26.50;32.10
21275;DHT22;36472;52.170;20.884;2024-01-30T08:25:09;26.60;32.10
21275;DHT22;36472;52.170;20.884;2024-01-30T08:27:39;26.60;32.10
21275;DHT22;36472;52.170;20.884;2024-01-30T08:30:09;26.70;31.80
21275;DHT22;36472;52.170;20.884;2024-01-30T08:32:40;26.80;31.90
21275;DHT22;36472;52.170;20.884;2024-01-30T08:35:09;26.90;31.90
21275;DHT22;36472;52.170;20.884;2024-01-30T08:37:41;27.00;31.80
21275;DHT22;36472;52.170;20.884;2024-01-30T08:40:11;27.00;31.80
21275;DHT22;36472;52.170;20.884;2024-01-30T08:42:40;27.10;31.80
21275;DHT22;36472;52.170;20.884;2024-01-30T08:45:09;27.20;31.40
21275;DHT22;36472;52.170;20.884;2024-01-30T08:47:40;27.20;31.20
21275;DHT22;36472;52.170;20.884;2024-01-30T08:50:09;27.20;31.20
21275;DHT22;36472;52.170;20.884;2024-01-30T08:52:38;27.30;31.30
21275;DHT22;36472;52.170;20.884;2024-01-30T08:55:07;27.40;31.50
21275;DHT22;36472;52.170;20.884;2024-01-30T08:57:37;27.50;31.20
21275;DHT22;36472;52.170;20.884;2024-01-30T09:00:07;27.50;31.00
21275;DHT22;36472;52.170;20.884;2024-01-30T09:02:37;27.60;30.80
21275;DHT22;36472;52.170;20.884;2024-01-30T09:05:08;27.70;30.70
21275;DHT22;36472;52.170;20.884;2024-01-30T09:07:38;27.70;30.60
21275;DHT22;36472;52.170;20.884;2024-01-30T09:10:07;27.80;30.40
21275;DHT22;36472;52.170;20.884;2024-01-30T09:12:40;27.80;30.40
21275;DHT22;36472;52.170;20.884;2024-01-30T09:15:10;27.90;30.30
21275;DHT22;36472;52.170;20.884;2024-01-30T09:17:39;28.00;30.10
21275;DHT22;36472;52.170;20.884;2024-01-30T09:20:10;28.00;30.00
21275;DHT22;36472;52.170;20.884;2024-01-30T09:22:40;28.10;30.20
21275;DHT22;36472;52.170;20.884;2024-01-30T09:25:09;28.20;30.00
21275;DHT22;36472;52.170;20.884;2024-01-30T09:27:38;28.20;29.70
21275;DHT22;36472;52.170;20.884;2024-01-30T09:30:08;28.30;29.90
21275;DHT22;36472;52.170;20.884;2024-01-30T09:32:39;28.30;29.60
21275;DHT22;36472;52.170;20.884;2024-01-30T09:35:10;28.40;29.70
21275;DHT22;36472;52.170;20.884;2024-01-30T09:37:39;28.50;29.80
21275;DHT22;36472;52.170;20.884;2024-01-30T09:40:08;28.60;29.70
21275;DHT22;36472;52.170;20.884;2024-01-30T09:42:38;28.70;29.50
21275;DHT22;36472;52.170;20.884;2024-01-30T09:45:10;28.70;29.40
21275;DHT22;36472;52.170;20.884;2024-01-30T09:47:43;28.90;29.50
21275;DHT22;36472;52.170;20.884;2024-01-30T09:50:15;28.90;29.20
21275;DHT22;36472;52.170;20.884;2024-01-30T09:52:45;28.90;29.30
21275;DHT22;36472;52.170;20.884;2024-01-30T09:55:15;29.00;29.10
21275;DHT22;36472;52.170;20.884;2024-01-30T09:57:44;29.10;29.30
21275;DHT22;36472;52.170;20.884;2024-01-30T10:00:14;29.20;29.00
21275;DHT22;36472;52.170;20.884;2024-01-30T10:02:43;29.30;28.80
21275;DHT22;36472;52.170;20.884;2024-01-30T10:05:15;29.40;29.40
21275;DHT22;36472;52.170;20.884;2024-01-30T10:07:53;29.60;28.80
21275;DHT22;36472;52.170;20.884;2024-01-30T10:10:24;29.70;28.60
21275;DHT22;36472;52.170;20.884;2024-01-30T10:12:54;29.70;28.30
21275;DHT22;36472;52.170;20.884;2024-01-30T10:15:23;29.70;28.30
21275;DHT22;36472;52.170;20.884;2024-01-30T10:17:54;29.70;28.40
21275;DHT22;36472;52.170;20.884;2024-01-30T10:20:26;29.70;28.00
21275;DHT22;36472;52.170;20.884;2024-01-30T10:22:56;29.60;28.20
21275;DHT22;36472;52.170;20.884;2024-01-30T10:25:25;29.60;28.40
21275;DHT22;36472;52.170;20.884;2024-01-30T10:27:55;29.60;28.70
21275;DHT22;36472;52.170;20.884;2024-01-30T10:30:24;29.60;28.60
21275;DHT22;36472;52.170;20.884;2024-01-30T10:32:54;29.60;28.20
21275;DHT22;36472;52.170;20.884;2024-01-30T10:35:23;29.60;28.40
21275;DHT22;36472;52.170;20.884;2024-01-30T10:37:57;29.60;28.70
21275;DHT22;36472;52.170;20.884;2024-01-30T10:40:28;29.30;27.80
21275;DHT22;36472;52.170;20.884;2024-01-30T10:42:59;29.40;28.90
21275;DHT22;36472;52.170;20.884;2024-01-30T10:45:32;29.50;28.50
21275;DHT22;36472;52.170;20.884;2024-01-30T10:48:03;29.40;28.20
21275;DHT22;36472;52.170;20.884;2024-01-30T10:50:38;29.50;28.20
21275;DHT22;36472;52.170;20.884;2024-01-30T10:53:22;29.40;28.20
21275;DHT22;36472;52.170;20.884;2024-01-30T10:55:54;29.50;28.40
21275;DHT22;36472;52.170;20.884;2024-01-30T10:58:27;29.60;28.30
21275;DHT22;36472;52.170;20.884;2024-01-30T11:00:56;29.50;28.40
21275;DHT22;36472;52.170;20.884;2024-01-30T11:03:27;29.60;29.00
21275;DHT22;36472;52.170;20.884;2024-01-30T11:05:59;29.60;28.20
21275;DHT22;36472;52.170;20.884;2024-01-30T11:08:32;29.60;28.00
21275;DHT22;36472;52.170;20.884;2024-01-30T11:11:01;29.50;28.10
21275;DHT22;36472;52.170;20.884;2024-01-30T11:13:37;29.70;28.00
21275;DHT22;36472;52.170;20.884;2024-01-30T11:16:06;29.60;28.30
21275;DHT22;36472;52.170;20.884;2024-01-30T11:18:36;29.70;28.30
21275;DHT22;36472;52.170;20.884;2024-01-30T11:21:05;29.60;28.20
21275;DHT22;36472;52.170;20.884;2024-01-30T11:23:35;29.70;28.50
21275;DHT22;36472;52.170;20.884;2024-01-30T11:26:10;29.80;28.20
21275;DHT22;36472;52.170;20.884;2024-01-30T11:28:40;29.80;27.90
21275;DHT22;36472;52.170;20.884;2024-01-30T11:31:09;29.80;27.70
21275;DHT22;36472;52.170;20.884;2024-01-30T11:33:40;29.80;28.10
21275;DHT22;36472;52.170;20.884;2024-01-30T11:36:09;29.80;28.30
21275;DHT22;36472;52.170;20.884;2024-01-30T11:38:43;29.80;28.00
21275;DHT22;36472;52.170;20.884;2024-01-30T11:41:14;29.80;27.90
21275;DHT22;36472;52.170;20.884;2024-01-30T11:43:51;29.90;28.10
21275;DHT22;36472;52.170;20.884;2024-01-30T11:46:21;30.00;27.90
21275;DHT22;36472;52.170;20.884;2024-01-30T11:48:53;29.90;28.10
21275;DHT22;36472;52.170;20.884;2024-01-30T11:51:22;29.70;28.00
21275;DHT22;36472;52.170;20.884;2024-01-30T11:53:53;29.80;28.20
21275;DHT22;36472;52.170;20.884;2024-01-30T11:56:24;29.80;28.20
21275;DHT22;36472;52.170;20.884;2024-01-30T11:58:54;29.90;28.40
21275;DHT22;36472;52.170;20.884;2024-01-30T12:01:23;29.90;28.10
21275;DHT22;36472;52.170;20.884;2024-01-30T12:03:54;30.00;28.10
21275;DHT22;36472;52.170;20.884;2024-01-30T12:06:24;30.00;28.00
21275;DHT22;36472;52.170;20.884;2024-01-30T12:09:02;30.20;28.10
21275;DHT22;36472;52.170;20.884;2024-01-30T12:11:32;30.40;27.70
21275;DHT22;36472;52.170;20.884;2024-01-30T12:14:02;30.40;27.60
21275;DHT22;36472;52.170;20.884;2024-01-30T12:16:31;30.40;27.90
21275;DHT22;36472;52.170;20.884;2024-01-30T12:19:00;30.50;27.80
21275;DHT22;36472;52.170;20.884;2024-01-30T12:21:30;30.40;27.80
21275;DHT22;36472;52.170;20.884;2024-01-30T12:24:00;30.20;27.40
21275;DHT22;36472;52.170;20.884;2024-01-30T12:26:30;30.30;27.90
21275;DHT22;36472;52.170;20.884;2024-01-30T12:28:59;30.40;27.90
21275;DHT22;36472;52.170;20.884;2024-01-30T12:31:29;30.30;27.90
21275;DHT22;36472;52.170;20.884;2024-01-30T12:34:02;30.10;28.00
21275;DHT22;36472;52.170;20.884;2024-01-30T12:36:31;30.20;28.20
21275;DHT22;36472;52.170;20.884;2024-01-30T12:39:02;30.10;28.10
21275;DHT22;36472;52.170;20.884;2024-01-30T12:41:32;30.20;28.10
21275;DHT22;36472;52.170;20.884;2024-01-30T12:44:01;30.10;28.20
21275;DHT22;36472;52.170;20.884;2024-01-30T12:46:30;30.00;28.00
21275;DHT22;36472;52.170;20.884;2024-01-30T12:48:59;30.10;28.00
21275;DHT22;36472;52.170;20.884;2024-01-30T12:51:30;30.10;28.30
21275;DHT22;36472;52.170;20.884;2024-01-30T12:54:07;30.10;28.20
21275;DHT22;36472;52.170;20.884;2024-01-30T12:56:36;30.00;28.30
21275;DHT22;36472;52.170;20.884;2024-01-30T12:59:05;30.10;28.40
21275;DHT22;36472;52.170;20.884;2024-01-30T13:01:34;30.10;28.40
21275;DHT22;36472;52.170;20.884;2024-01-30T13:04:04;30.10;28.20
21275;DHT22;36472;52.170;20.884;2024-01-30T13:06:33;30.10;28.10
21275;DHT22;36472;52.170;20.884;2024-01-30T13:09:02;30.10;28.30
21275;DHT22;36472;52.170;20.884;2024-01-30T13:11:32;30.10;28.10
21275;DHT22;36472;52.170;20.884;2024-01-30T13:14:02;30.10;28.20
21275;DHT22;36472;52.170;20.884;2024-01-30T13:16:31;30.10;28.30
21275;DHT22;36472;52.170;20.884;2024-01-30T13:19:00;30.00;28.20
21275;DHT22;36472;52.170;20.884;2024-01-30T13:21:29;30.00;28.30
21275;DHT22;36472;52.170;20.884;2024-01-30T13:23:59;29.90;28.50
21275;DHT22;36472;52.170;20.884;2024-01-30T13:26:28;30.00;28.30
21275;DHT22;36472;52.170;20.884;2024-01-30T13:28:59;30.00;28.70
21275;DHT22;36472;52.170;20.884;2024-01-30T13:31:29;30.00;28.30
21275;DHT22;36472;52.170;20.884;2024-01-30T13:33:59;30.00;28.30
21275;DHT22;36472;52.170;20.884;2024-01-30T13:36:29;30.10;28.30
21275;DHT22;36472;52.170;20.884;2024-01-30T13:38:58;30.00;28.40
21275;DHT22;36472;52.170;20.884;2024-01-30T13:41:27;30.00;28.40
21275;DHT22;36472;52.170;20.884;2024-01-30T13:43:59;29.80;28.20
21275;DHT22;36472;52.170;20.884;2024-01-30T13:46:30;29.80;28.20
21275;DHT22;36472;52.170;20.884;2024-01-30T13:49:00;29.80;28.50
21275;DHT22;36472;52.170;20.884;2024-01-30T13:51:29;29.80;28.60
21275;DHT22;36472;52.170;20.884;2024-01-30T13:53:58;29.90;28.40
21275;DHT22;36472;52.170;20.884;2024-01-30T13:56:27;29.90;28.20
21275;DHT22;36472;52.170;20.884;2024-01-30T13:58:59;29.90;28.20
21275;DHT22;36472;52.170;20.884;2024-01-30T14:01:29;29.90;28.20
21275;DHT22;36472;52.170;20.884;2024-01-30T14:03:58;29.90;28.20
21275;DHT22;36472;52.170;20.884;2024-01-30T14:06:27;29.90;28.20
21275;DHT22;36472;52.170;20.884;2024-01-30T14:08:57;29.90;28.20
21275;DHT22;36472;52.170;20.884;2024-01-30T14:11:34;29.90;28.60
21275;DHT22;36472;52.170;20.884;2024-01-30T14:14:04;29.90;28.40
21275;DHT22;36472;52.170;20.884;2024-01-30T14:16:33;29.90;28.10
21275;DHT22;36472;52.170;20.884;2024-01-30T14:19:02;29.90;28.60
21275;DHT22;36472;52.170;20.884;2024-01-30T14:21:31;29.90;28.10
21275;DHT22;36472;52.170;20.884;2024-01-30T14:24:00;29.90;28.40
21275;DHT22;36472;52.170;20.884;2024-01-30T14:26:29;29.90;28.60
21275;DHT22;36472;52.170;20.884;2024-01-30T14:28:58;29.90;28.60
21275;DHT22;36472;52.170;20.884;2024-01-30T14:31:29;29.80;28.40
21275;DHT22;36472;52.170;20.884;2024-01-30T14:33:58;29.80;28.60
21275;DHT22;36472;52.170;20.884;2024-01-30T14:36:28;29.80;28.90
21275;DHT22;36472;52.170;20.884;2024-01-30T14:38:57;29.70;28.90
21275;DHT22;36472;52.170;20.884;2024-01-30T14:41:26;29.60;28.70
21275;DHT22;36472;52.170;20.884;2024-01-30T14:43:56;29.60;28.80
21275;DHT22;36472;52.170;20.884;2024-01-30T14:46:25;29.50;28.80
21275;DHT22;36472;52.170;20.884;2024-01-30T14:48:56;29.50;28.60
21275;DHT22;36472;52.170;20.884;2024-01-30T14:51:26;29.40;28.80
21275;DHT22;36472;52.170;20.884;2024-01-30T14:53:57;29.40;28.80
21275;DHT22;36472;52.170;20.884;2024-01-30T14:56:26;29.40;29.30
21275;DHT22;36472;52.170;20.884;2024-01-30T14:58:55;29.30;29.20
21275;DHT22;36472;52.170;20.884;2024-01-30T15:01:25;29.30;29.30
21275;DHT22;36472;52.170;20.884;2024-01-30T15:03:56;29.30;29.10
21275;DHT22;36472;52.170;20.884;2024-01-30T15:06:26;29.20;29.10
21275;DHT22;36472;52.170;20.884;2024-01-30T15:08:55;29.20;29.20
21275;DHT22;36472;52.170;20.884;2024-01-30T15:11:25;29.20;29.70
21275;DHT22;36472;52.170;20.884;2024-01-30T15:13:54;29.10;29.80
21275;DHT22;36472;52.170;20.884;2024-01-30T15:16:23;29.00;29.50
21275;DHT22;36472;52.170;20.884;2024-01-30T15:18:52;29.00;29.70
21275;DHT22;36472;52.170;20.884;2024-01-30T15:21:23;29.00;29.70
21275;DHT22;36472;52.170;20.884;2024-01-30T15:23:53;28.90;29.70
21275;DHT22;36472;52.170;20.884;2024-01-30T15:26:22;28.80;29.90
21275;DHT22;36472;52.170;20.884;2024-01-30T15:28:51;28.70;30.00
21275;DHT22;36472;52.170;20.884;2024-01-30T15:31:20;28.70;30.00